createdAt,value
2019-05-14T00:02:06.130Z,101311.93
2019-05-14T00:04:46.068Z,101309.77
2019-05-14T00:07:22.433Z,101308.48
2019-05-14T00:09:56.698Z,101308.92
2019-05-14T00:12:31.625Z,101305.95
2019-05-14T00:15:07.743Z,101310.30
2019-05-14T00:17:43.115Z,101313.37
2019-05-14T00:20:18.002Z,101308.58
2019-05-14T00:22:55.768Z,101309.88
2019-05-14T00:25:31.465Z,101311.59
2019-05-14T00:28:06.300Z,101303.78
2019-05-14T00:30:43.826Z,101309.89
2019-05-14T00:33:22.337Z,101306.03
2019-05-14T00:35:58.865Z,101309.48
2019-05-14T00:38:35.303Z,101312.55
2019-05-14T00:41:13.207Z,101309.94
2019-05-14T00:43:51.206Z,101315.16
2019-05-14T00:46:27.514Z,101308.23
2019-05-14T00:49:04.717Z,101316.07
2019-05-14T00:51:43.877Z,101310.86
2019-05-14T00:54:21.511Z,101308.25
2019-05-14T00:57:01.353Z,101308.26
2019-05-14T00:59:37.172Z,101312.63
2019-05-14T01:02:16.048Z,101300.91
2019-05-14T01:04:54.992Z,101295.27
2019-05-14T01:07:32.752Z,101294.40
2019-05-14T01:10:11.610Z,101290.51
2019-05-14T01:12:48.498Z,101291.39
2019-05-14T01:15:25.496Z,101293.59
2019-05-14T01:18:03.050Z,101284.04
2019-05-14T01:20:41.480Z,101286.17
2019-05-14T01:23:21.459Z,101291.86
2019-05-14T01:26:02.070Z,101288.78
2019-05-14T01:28:41.367Z,101286.17
2019-05-14T01:31:21.732Z,101285.34
2019-05-14T01:33:59.358Z,101278.84
2019-05-14T01:36:37.364Z,101273.64
2019-05-14T01:39:14.903Z,101277.11
2019-05-14T01:41:52.838Z,101276.66
2019-05-14T01:44:31.906Z,101280.56
2019-05-14T01:47:12.410Z,101275.81
2019-05-14T01:49:45.774Z,101275.36
2019-05-14T01:52:21.602Z,101274.05
2019-05-14T01:54:58.713Z,101273.56
2019-05-14T01:57:34.901Z,101270.95
2019-05-14T02:00:12.281Z,101275.73
2019-05-14T02:02:49.010Z,101267.52
2019-05-14T02:05:26.288Z,101268.40
2019-05-14T02:08:03.792Z,101275.73
2019-05-14T02:10:38.952Z,101270.53
2019-05-14T02:13:12.246Z,101271.83
2019-05-14T02:15:44.634Z,101270.06
2019-05-14T02:18:16.986Z,101268.80
2019-05-14T02:20:53.822Z,101269.66
2019-05-14T02:23:33.097Z,101280.97
2019-05-14T02:26:11.417Z,101276.63
2019-05-14T02:28:48.742Z,101270.13
2019-05-14T02:31:29.205Z,101270.11
2019-05-14T02:34:09.909Z,101269.22
2019-05-14T02:36:43.925Z,101269.65
2019-05-14T02:39:20.247Z,101268.33
2019-05-14T02:41:58.996Z,101263.53
2019-05-14T02:44:36.330Z,101261.40
2019-05-14T02:47:13.259Z,101258.75
2019-05-14T02:49:50.182Z,101257.91
2019-05-14T02:52:29.104Z,101258.73
2019-05-14T02:55:09.147Z,101253.51
2019-05-14T02:57:43.062Z,101250.44
2019-05-14T03:00:20.738Z,101251.73
2019-05-14T03:02:59.852Z,101252.61
2019-05-14T03:05:30.388Z,101248.70
2019-05-14T03:08:01.328Z,101240.41
2019-05-14T03:10:32.261Z,101241.70
2019-05-14T03:13:03.417Z,101238.66
2019-05-14T03:15:34.453Z,101241.21
2019-05-14T03:18:05.368Z,101233.85
2019-05-14T03:20:39.083Z,101231.25
2019-05-14T03:23:15.660Z,101218.31
2019-05-14T03:25:41.998Z,101224.76
2019-05-14T03:28:13.157Z,101218.23
2019-05-14T03:30:44.591Z,101216.45
2019-05-14T03:33:21.294Z,101207.32
2019-05-14T03:35:57.248Z,101204.28
2019-05-14T03:38:22.298Z,101212.93
2019-05-14T03:40:53.217Z,101222.47
2019-05-14T03:43:24.008Z,101208.13
2019-05-14T03:45:55.288Z,101213.77
2019-05-14T03:48:29.329Z,101213.33
2019-05-14T03:51:00.140Z,101210.22
2019-05-14T03:53:31.451Z,101208.42
2019-05-14T03:56:02.409Z,101201.88
2019-05-14T03:58:33.418Z,101211.34
2019-05-14T04:01:04.539Z,101204.38
2019-05-14T04:03:35.789Z,101201.70
2019-05-14T04:06:09.810Z,101207.27
2019-05-14T04:08:40.568Z,101198.47
2019-05-14T04:11:12.468Z,101194.55
2019-05-14T04:13:44.183Z,101197.17
2019-05-14T04:16:15.491Z,101189.34
2019-05-14T04:18:50.361Z,101191.02
2019-05-14T04:21:21.638Z,101190.54
2019-05-14T04:23:54.039Z,101186.18
2019-05-14T04:26:25.479Z,101188.76
2019-05-14T04:29:00.380Z,101189.11
2019-05-14T04:31:32.512Z,101192.52
2019-05-14T04:34:03.750Z,101188.58
2019-05-14T04:36:34.807Z,101198.12
2019-05-14T04:39:09.431Z,101197.67
2019-05-14T04:41:39.603Z,101199.77
2019-05-14T04:44:10.491Z,101197.58
2019-05-14T04:46:41.608Z,101198.04
2019-05-14T04:49:12.508Z,101191.43
2019-05-14T04:51:43.551Z,101195.72
2019-05-14T04:54:14.508Z,101196.55
2019-05-14T04:56:45.445Z,101205.29
2019-05-14T04:59:19.189Z,101204.45
2019-05-14T05:01:49.604Z,101210.91
2019-05-14T05:04:20.667Z,101206.56
2019-05-14T05:06:51.909Z,101214.78
2019-05-14T05:09:22.727Z,101208.58
2019-05-14T05:11:53.608Z,101200.67
2019-05-14T05:14:24.787Z,101194.90
2019-05-14T05:16:55.570Z,101185.18
2019-05-14T05:19:28.860Z,101185.64
2019-05-14T05:21:58.912Z,101184.72
2019-05-14T05:24:30.707Z,101189.87
2019-05-14T05:27:01.607Z,101177.77
2019-05-14T05:29:32.527Z,101181.48
2019-05-14T05:32:03.299Z,101185.38
2019-05-14T05:34:34.107Z,101191.47
2019-05-14T05:37:08.403Z,101183.63
2019-05-14T05:39:41.309Z,101184.09
2019-05-14T05:42:12.647Z,101183.69
2019-05-14T05:44:48.343Z,101185.02
2019-05-14T05:47:22.718Z,101179.75
2019-05-14T05:49:53.715Z,101179.34
2019-05-14T05:52:24.898Z,101185.42
2019-05-14T05:54:58.194Z,101178.03
2019-05-14T05:57:28.594Z,101177.95
2019-05-14T05:59:59.508Z,101183.19
2019-05-14T06:02:30.640Z,101183.14
2019-05-14T06:05:01.797Z,101181.86
2019-05-14T06:07:32.808Z,101181.95
2019-05-14T06:10:03.587Z,101184.08
2019-05-14T06:12:34.547Z,101181.95
2019-05-14T06:15:08.482Z,101186.24
2019-05-14T06:17:39.170Z,101185.23
2019-05-14T06:20:10.508Z,101186.02
2019-05-14T06:22:42.627Z,101188.83
2019-05-14T06:25:13.773Z,101184.44
2019-05-14T06:27:44.979Z,101180.86
2019-05-14T06:30:19.048Z,101184.61
2019-05-14T06:32:49.947Z,101181.98
2019-05-14T06:35:21.127Z,101180.26
2019-05-14T06:37:52.250Z,101173.66
2019-05-14T06:40:23.260Z,101175.87
2019-05-14T06:42:54.297Z,101166.70
2019-05-14T06:45:25.268Z,101160.70
2019-05-14T06:47:56.172Z,101162.41
2019-05-14T06:50:28.436Z,101160.59
2019-05-14T06:52:59.537Z,101162.22
2019-05-14T06:55:30.537Z,101161.68
2019-05-14T06:58:01.447Z,101159.83
2019-05-14T07:00:32.668Z,101151.91
2019-05-14T07:03:03.407Z,101157.03
2019-05-14T07:05:35.069Z,101153.95
2019-05-14T07:08:08.851Z,101149.05
2019-05-14T07:10:39.504Z,101147.53
2019-05-14T07:13:10.788Z,101152.95
2019-05-14T07:15:41.745Z,101160.53
2019-05-14T07:18:13.328Z,101153.82
2019-05-14T07:20:44.357Z,101147.74
2019-05-14T07:23:15.489Z,101159.05
2019-05-14T07:25:48.331Z,101154.18
2019-05-14T07:28:19.395Z,101157.16
2019-05-14T07:30:50.353Z,101158.34
2019-05-14T07:33:21.437Z,101154.80
2019-05-14T07:35:52.565Z,101148.75
2019-05-14T07:38:23.550Z,101151.40
2019-05-14T07:40:54.467Z,101152.37
2019-05-14T07:43:25.475Z,101153.12
2019-05-14T07:45:58.220Z,101148.56
2019-05-14T07:48:29.227Z,101144.98
2019-05-14T07:51:00.287Z,101140.27
2019-05-14T07:53:38.821Z,101148.47
2019-05-14T07:56:04.107Z,101146.43
2019-05-14T07:58:35.178Z,101144.61
2019-05-14T08:01:06.188Z,101141.52
2019-05-14T08:03:38.245Z,101146.59
2019-05-14T08:06:09.617Z,101142.98
2019-05-14T08:08:40.589Z,101139.17
2019-05-14T08:11:11.648Z,101137.36
2019-05-14T08:13:42.750Z,101140.12
2019-05-14T08:16:13.802Z,101137.48
2019-05-14T08:18:44.843Z,101133.96
2019-05-14T08:21:15.783Z,101138.50
2019-05-14T08:23:48.090Z,101138.56
2019-05-14T08:26:19.470Z,101133.97
2019-05-14T08:28:50.838Z,101129.14
2019-05-14T08:31:21.767Z,101132.66
2019-05-14T08:33:53.071Z,101128.29
2019-05-14T08:36:23.948Z,101126.02
2019-05-14T08:38:55.488Z,101126.05
2019-05-14T08:41:28.645Z,101118.11
2019-05-14T08:43:59.480Z,101123.70
2019-05-14T08:46:30.829Z,101120.64
2019-05-14T08:49:01.751Z,101113.92
2019-05-14T08:51:33.609Z,101115.31
2019-05-14T08:54:04.688Z,101122.30
2019-05-14T08:56:38.731Z,101116.13
2019-05-14T08:59:09.530Z,101117.38
2019-05-14T09:01:56.921Z,101115.47
2019-05-14T09:04:13.431Z,101116.11
2019-05-14T09:06:44.462Z,101119.98
2019-05-14T09:09:15.526Z,101119.57
2019-05-14T09:11:50.255Z,101119.98
2019-05-14T09:14:20.027Z,101117.21
2019-05-14T09:16:51.413Z,101116.31
2019-05-14T09:19:22.817Z,101110.27
2019-05-14T09:21:53.789Z,101109.66
2019-05-14T09:24:24.838Z,101102.17
2019-05-14T09:26:55.659Z,101101.95
2019-05-14T09:29:29.779Z,101107.16
2019-05-14T09:31:59.361Z,101095.69
2019-05-14T09:34:30.328Z,101097.55
2019-05-14T09:37:01.565Z,101099.41
2019-05-14T09:39:33.438Z,101102.35
2019-05-14T09:42:04.508Z,101098.96
2019-05-14T09:44:38.576Z,101091.76
2019-05-14T09:47:08.795Z,101089.39
2019-05-14T09:49:39.860Z,101088.86
2019-05-14T09:52:11.147Z,101090.70
2019-05-14T09:54:44.148Z,101086.39
2019-05-14T09:57:14.809Z,101077.45
2019-05-14T09:59:47.834Z,101075.30
2019-05-14T10:02:18.429Z,101073.62
2019-05-14T10:04:49.347Z,101073.93
2019-05-14T10:07:20.368Z,101066.38
2019-05-14T10:09:51.548Z,101073.51
2019-05-14T10:12:22.598Z,101070.02
2019-05-14T10:14:53.528Z,101064.45
2019-05-14T10:17:24.570Z,101062.03
2019-05-14T10:19:55.598Z,101060.53
2019-05-14T10:22:28.532Z,101060.91
2019-05-14T10:24:59.369Z,101062.45
2019-05-14T10:27:31.029Z,101049.57
2019-05-14T10:30:02.078Z,101054.55
2019-05-14T10:32:33.167Z,101049.84
2019-05-14T10:35:04.907Z,101054.16
2019-05-14T10:37:36.072Z,101048.60
2019-05-14T10:40:10.502Z,101055.66
2019-05-14T10:42:41.029Z,101051.91
2019-05-14T10:45:13.155Z,101048.38
2019-05-14T10:47:44.217Z,101050.45
2019-05-14T10:50:15.377Z,101041.67
2019-05-14T10:52:48.864Z,101040.09
2019-05-14T10:55:18.927Z,101038.12
2019-05-14T10:57:54.212Z,101038.38
2019-05-14T11:00:22.618Z,101036.32
2019-05-14T11:02:53.557Z,101043.61
2019-05-14T11:05:24.638Z,101045.93
2019-05-14T11:07:58.525Z,101037.56
2019-05-14T11:10:29.831Z,101036.95
2019-05-14T11:13:01.089Z,101031.52
2019-05-14T11:15:32.319Z,101032.11
2019-05-14T11:18:03.329Z,101035.78
2019-05-14T11:20:34.357Z,101033.70
2019-05-14T11:23:05.589Z,101030.89
2019-05-14T11:25:38.355Z,101028.16
2019-05-14T11:28:09.498Z,101022.80
2019-05-14T11:30:41.277Z,101017.21
2019-05-14T11:33:12.229Z,101018.80
2019-05-14T11:35:43.521Z,101015.27
2019-05-14T11:38:28.685Z,101011.92
2019-05-14T11:40:49.428Z,101011.32
2019-05-14T11:43:19.611Z,101010.89
2019-05-14T11:45:50.658Z,101009.89
2019-05-14T11:48:21.860Z,101020.44
2019-05-14T11:50:53.078Z,101012.66
2019-05-14T11:53:24.128Z,101006.42
2019-05-14T11:55:55.218Z,101003.80
2019-05-14T11:58:26.269Z,101004.06
2019-05-14T12:00:58.465Z,101002.25
2019-05-14T12:03:29.597Z,100995.23
2019-05-14T12:06:00.558Z,100999.48
2019-05-14T12:08:31.507Z,100996.67
2019-05-14T12:11:02.548Z,100996.14
2019-05-14T12:13:33.590Z,100999.06
2019-05-14T12:16:04.538Z,100996.45
2019-05-14T12:18:41.390Z,100999.77
2019-05-14T12:21:09.170Z,100994.39
2019-05-14T12:23:41.178Z,100991.70
2019-05-14T12:26:12.119Z,100988.22
2019-05-14T12:28:43.147Z,100991.84
2019-05-14T12:31:14.097Z,100994.06
2019-05-14T12:33:45.275Z,100997.16
2019-05-14T12:36:19.033Z,100995.94
2019-05-14T12:38:49.031Z,100997.25
2019-05-14T12:41:20.058Z,100993.86
2019-05-14T12:43:51.097Z,100990.88
2019-05-14T12:46:22.137Z,100993.56
2019-05-14T12:48:53.308Z,100993.56
2019-05-14T12:51:25.648Z,100987.02
2019-05-14T12:53:58.270Z,100982.05
2019-05-14T12:56:29.558Z,100976.77
2019-05-14T12:59:00.557Z,100975.80
2019-05-14T13:01:31.637Z,100965.75
2019-05-14T13:04:02.872Z,100967.64
2019-05-14T13:06:33.796Z,100967.31
2019-05-14T13:09:05.678Z,100969.63
2019-05-14T13:11:41.362Z,100970.50
2019-05-14T13:14:09.917Z,100974.02
2019-05-14T13:16:40.840Z,100968.82
2019-05-14T13:19:12.169Z,100970.20
2019-05-14T13:21:43.327Z,100968.38
2019-05-14T13:24:14.497Z,100965.94
2019-05-14T13:26:45.308Z,100966.47
2019-05-14T13:29:19.129Z,100965.30
2019-05-14T13:31:49.808Z,100952.34
2019-05-14T13:34:21.928Z,100948.55
2019-05-14T13:36:54.350Z,100952.47
2019-05-14T13:39:25.178Z,100947.70
2019-05-14T13:41:56.057Z,100941.69
2019-05-14T13:44:29.158Z,100941.16
2019-05-14T13:47:00.108Z,100932.88
2019-05-14T13:49:31.308Z,100931.16
2019-05-14T13:52:02.380Z,100928.41
2019-05-14T13:54:34.688Z,100926.62
2019-05-14T13:57:08.321Z,100929.08
2019-05-14T13:59:44.017Z,100929.81
2019-05-14T14:02:13.079Z,100935.02
2019-05-14T14:04:44.278Z,100934.14
2019-05-14T14:07:18.748Z,100933.61
2019-05-14T14:09:49.822Z,100937.56
2019-05-14T14:12:25.025Z,100931.70
2019-05-14T14:14:53.782Z,100923.57
2019-05-14T14:17:24.737Z,100924.47
2019-05-14T14:19:55.608Z,100918.00
2019-05-14T14:22:26.679Z,100924.17
2019-05-14T14:24:59.239Z,100922.08
2019-05-14T14:27:30.384Z,100927.38
2019-05-14T14:30:02.013Z,100927.95
2019-05-14T14:32:33.209Z,100925.73
2019-05-14T14:35:04.397Z,100920.88
2019-05-14T14:37:35.629Z,100919.31
2019-05-14T14:40:09.912Z,100913.78
2019-05-14T14:42:40.366Z,100922.13
2019-05-14T14:45:12.797Z,100911.16
2019-05-14T14:47:44.030Z,100917.45
2019-05-14T14:50:15.448Z,100916.64
2019-05-14T14:52:49.293Z,100916.42
2019-05-14T14:55:19.520Z,100923.02
2019-05-14T14:57:54.038Z,100923.17
2019-05-14T15:00:23.887Z,100923.72
2019-05-14T15:02:55.058Z,100922.47
2019-05-14T15:05:29.330Z,100924.66
2019-05-14T15:08:00.235Z,100924.53
2019-05-14T15:10:31.507Z,100915.73
2019-05-14T15:13:02.718Z,100921.36
2019-05-14T15:15:33.817Z,100929.76
2019-05-14T15:18:05.147Z,100928.95
2019-05-14T15:20:36.767Z,100925.58
2019-05-14T15:23:09.767Z,100919.95
2019-05-14T15:25:41.199Z,100916.98
2019-05-14T15:28:13.337Z,100907.40
2019-05-14T15:30:44.437Z,100905.74
2019-05-14T15:33:15.388Z,100907.66
2019-05-14T15:35:48.674Z,100899.06
2019-05-14T15:38:18.968Z,100893.89
2019-05-14T15:40:49.870Z,100891.28
2019-05-14T15:43:20.948Z,100883.50
2019-05-14T15:45:51.968Z,100886.98
2019-05-14T15:48:23.230Z,100883.91
2019-05-14T15:50:54.307Z,100885.65
2019-05-14T15:53:25.408Z,100878.27
2019-05-14T15:55:56.488Z,100879.09
2019-05-14T15:58:29.899Z,100876.01
2019-05-14T16:01:01.264Z,100870.34
2019-05-14T16:03:32.407Z,100873.86
2019-05-14T16:06:03.447Z,100870.38
2019-05-14T16:08:34.498Z,100869.97
2019-05-14T16:11:06.155Z,100873.11
2019-05-14T16:13:39.802Z,100868.34
2019-05-14T16:16:11.277Z,100878.27
2019-05-14T16:18:42.288Z,100865.17
2019-05-14T16:21:18.275Z,100876.85
2019-05-14T16:23:49.228Z,100869.91
2019-05-14T16:26:21.678Z,100866.41
2019-05-14T16:28:52.898Z,100866.41
2019-05-14T16:31:24.036Z,100873.34
2019-05-14T16:33:56.145Z,100870.00
2019-05-14T16:36:28.877Z,100855.80
2019-05-14T16:39:03.397Z,100867.41
2019-05-14T16:41:35.592Z,100864.34
2019-05-14T16:44:09.041Z,100865.55
2019-05-14T16:46:42.940Z,100862.13
2019-05-14T16:49:14.068Z,100867.80
2019-05-14T16:51:44.858Z,100871.80
2019-05-14T16:54:18.167Z,100859.95
2019-05-14T16:56:49.117Z,100865.64
2019-05-14T16:59:20.127Z,100868.31
2019-05-14T17:01:51.119Z,100874.47
2019-05-14T17:04:22.309Z,100874.12
2019-05-14T17:06:55.636Z,100879.77
2019-05-14T17:09:30.937Z,100875.42
2019-05-14T17:12:02.867Z,100885.44
2019-05-14T17:14:38.423Z,100875.39
2019-05-14T17:17:09.430Z,100879.34
2019-05-14T17:19:40.488Z,100885.47
2019-05-14T17:22:24.456Z,100882.30
2019-05-14T17:24:44.288Z,100887.53
2019-05-14T17:27:16.018Z,100886.17
2019-05-14T17:29:48.488Z,100890.17
2019-05-14T17:32:19.500Z,100893.27
2019-05-14T17:34:51.978Z,100894.14
2019-05-14T17:37:22.967Z,100890.66
2019-05-14T17:39:54.077Z,100881.52
2019-05-14T17:42:25.082Z,100889.73
2019-05-14T17:44:55.928Z,100891.48
2019-05-14T17:47:28.843Z,100889.36
2019-05-14T17:50:04.267Z,100881.92
2019-05-14T17:52:35.628Z,100876.20
2019-05-14T17:55:11.599Z,100874.88
2019-05-14T17:57:46.214Z,100871.42
2019-05-14T18:00:13.908Z,100869.19
2019-05-14T18:02:45.195Z,100872.64
2019-05-14T18:05:18.803Z,100868.75
2019-05-14T18:07:49.927Z,100866.60
2019-05-14T18:10:21.168Z,100867.01
2019-05-14T18:12:52.228Z,100865.27
2019-05-14T18:15:23.018Z,100867.01
2019-05-14T18:17:54.200Z,100870.03
2019-05-14T18:20:25.148Z,100876.97
2019-05-14T18:22:58.207Z,100875.20
2019-05-14T18:25:30.006Z,100872.52
2019-05-14T18:28:01.550Z,100873.86
2019-05-14T18:30:32.638Z,100862.19
2019-05-14T18:33:03.727Z,100866.60
2019-05-14T18:35:34.889Z,100857.46
2019-05-14T18:38:08.117Z,100840.50
2019-05-14T18:40:39.743Z,100837.48
2019-05-14T18:43:11.038Z,100840.48
2019-05-14T18:45:41.969Z,100838.77
2019-05-14T18:48:12.974Z,100841.38
2019-05-14T18:50:44.192Z,100820.59
2019-05-14T18:53:15.099Z,100822.25
2019-05-14T18:55:48.813Z,100816.62
2019-05-14T18:58:19.716Z,100820.94
2019-05-14T19:00:53.817Z,100814.88
2019-05-14T19:03:28.550Z,100807.45
2019-05-14T19:05:59.237Z,100806.57
2019-05-14T19:08:30.141Z,100809.66
2019-05-14T19:11:00.988Z,100807.09
2019-05-14T19:13:31.861Z,100804.45
2019-05-14T19:16:02.849Z,100810.06
2019-05-14T19:18:33.723Z,100808.72
2019-05-14T19:21:04.567Z,100809.13
2019-05-14T19:23:38.254Z,100801.63
2019-05-14T19:26:09.575Z,100801.20
2019-05-14T19:28:40.654Z,100794.20
2019-05-14T19:31:11.830Z,100802.50
2019-05-14T19:33:43.748Z,100795.51
2019-05-14T19:36:14.858Z,100794.23
2019-05-14T19:38:48.131Z,100796.81
2019-05-14T19:41:23.189Z,100789.78
2019-05-14T19:43:59.585Z,100791.96
2019-05-14T19:46:38.655Z,100789.41
2019-05-14T19:49:11.190Z,100786.23
2019-05-14T19:51:43.369Z,100786.61
2019-05-14T19:54:19.175Z,100780.14
2019-05-14T19:56:56.486Z,100787.05
2019-05-14T19:59:25.909Z,100784.84
2019-05-14T20:01:58.894Z,100781.33
2019-05-14T20:04:30.289Z,100786.09
2019-05-14T20:07:01.099Z,100785.99
2019-05-14T20:09:32.147Z,100781.16
2019-05-14T20:12:03.121Z,100777.34
2019-05-14T20:14:34.119Z,100789.34
2019-05-14T20:17:05.267Z,100787.23
2019-05-14T20:19:36.187Z,100785.02
2019-05-14T20:22:07.199Z,100778.49
2019-05-14T20:24:41.452Z,100775.44
2019-05-14T20:27:22.748Z,100778.02
2019-05-14T20:29:53.650Z,100766.27
2019-05-14T20:32:24.698Z,100776.22
2019-05-14T20:34:57.921Z,100775.34
2019-05-14T20:37:29.150Z,100770.62
2019-05-14T20:40:00.089Z,100770.62
2019-05-14T20:42:30.887Z,100759.70
2019-05-14T20:45:01.787Z,100760.00
2019-05-14T20:47:33.667Z,100764.27
2019-05-14T20:50:04.538Z,100765.60
2019-05-14T20:52:35.477Z,100763.42
2019-05-14T20:55:09.201Z,100763.86
2019-05-14T20:57:39.127Z,100765.56
2019-05-14T21:00:11.639Z,100762.05
2019-05-14T21:02:42.927Z,100764.20
2019-05-14T21:05:14.071Z,100769.33
2019-05-14T21:07:45.187Z,100768.02
2019-05-14T21:10:16.058Z,100761.98
2019-05-14T21:12:48.808Z,100760.21
2019-05-14T21:15:19.477Z,100759.37
2019-05-14T21:17:50.568Z,100753.73
2019-05-14T21:20:21.527Z,100749.75
2019-05-14T21:22:52.537Z,100743.69
2019-05-14T21:25:24.187Z,100741.98
2019-05-14T21:27:55.197Z,100745.83
2019-05-14T21:30:26.118Z,100741.98
2019-05-14T21:32:57.161Z,100735.44
2019-05-14T21:35:29.688Z,100730.28
2019-05-14T21:38:01.309Z,100728.06
2019-05-14T21:40:32.272Z,100719.42
2019-05-14T21:43:03.177Z,100723.75
2019-05-14T21:45:34.127Z,100718.52
2019-05-14T21:48:05.187Z,100712.78
2019-05-14T21:50:38.514Z,100706.69
2019-05-14T21:53:08.611Z,100703.16
2019-05-14T21:55:39.707Z,100698.34
2019-05-14T21:58:11.925Z,100701.09
2019-05-14T22:00:48.579Z,100697.57
2019-05-14T22:03:20.792Z,100692.23
2019-05-14T22:05:51.915Z,100682.66
2019-05-14T22:08:23.717Z,100676.55
2019-05-14T22:10:54.709Z,100682.69
2019-05-14T22:13:25.687Z,100682.22
2019-05-14T22:15:58.789Z,100677.80
2019-05-14T22:18:29.208Z,100670.72
2019-05-14T22:21:00.412Z,100669.77
2019-05-14T22:23:32.339Z,100665.41
2019-05-14T22:26:03.247Z,100665.81
2019-05-14T22:28:34.297Z,100664.91
2019-05-14T22:31:05.318Z,100660.04
2019-05-14T22:33:38.227Z,100649.80
2019-05-14T22:36:08.817Z,100656.19
2019-05-14T22:38:39.647Z,100664.11
2019-05-14T22:41:11.602Z,100667.95
2019-05-14T22:43:42.770Z,100660.04
2019-05-14T22:46:13.498Z,100650.85
2019-05-14T22:48:44.647Z,100668.25
2019-05-14T22:51:18.150Z,100661.72
2019-05-14T22:53:49.433Z,100647.33
2019-05-14T22:56:22.108Z,100642.53
2019-05-14T22:58:53.207Z,100643.41
2019-05-14T23:01:25.087Z,100638.58
2019-05-14T23:03:56.087Z,100637.27
2019-05-14T23:06:28.144Z,100650.27
2019-05-14T23:09:00.227Z,100654.13
2019-05-14T23:11:31.107Z,100647.19
2019-05-14T23:14:01.989Z,100646.28
2019-05-14T23:16:37.733Z,100640.10
2019-05-14T23:19:07.835Z,100636.55
2019-05-14T23:21:39.049Z,100639.16
2019-05-14T23:24:10.267Z,100640.86
2019-05-14T23:26:41.267Z,100638.61
2019-05-14T23:29:13.307Z,100635.95
2019-05-14T23:31:44.418Z,100631.95
2019-05-14T23:34:15.397Z,100636.31
2019-05-14T23:36:48.334Z,100629.81
2019-05-14T23:39:19.567Z,100636.28
2019-05-14T23:41:50.487Z,100637.59
2019-05-14T23:44:23.707Z,100630.14
2019-05-14T23:46:54.530Z,100630.57
2019-05-14T23:49:25.527Z,100627.05
2019-05-14T23:51:56.453Z,100621.81
2019-05-14T23:54:29.176Z,100620.83
2019-05-14T23:57:00.427Z,100616.91
2019-05-14T23:59:31.547Z,100608.58
